Terminal Aerodrome Forecast
Issued by NWS Wilmington, OH

Current Version | Previous Version | Graphics & Text | Print | Product List | Glossary On
Versions: 1 2 3 4 5 6 7 8 9 10 11 12 13 14 15 16 17 18 19 20 21 22 23 24 25 26 27 28 29 30 31
000
FTUS41 KILN 191700
TAFDAY
TAF
KDAY 191726Z 1918/2018 12012KT P6SM FEW050
     FM192300 15006KT P6SM SKC
     FM201100 17008KT P6SM BKN040
     FM201400 22012G22KT P6SM BKN050=

USA.gov is the U.S. government's official web portal to all federal, state and local government web resources and services.